Time;durP1;ratioP1;P1;durP2;ratioP2;P2;SDS_P1;SDS_P2;PMS_P1;PMS_P2;Temp;Humidity;BMP_temperature;BMP_pressure;BME280_temperature;BME280_humidity;BME280_pressure;Samples;Min_cycle;Max_cycle;Signal;HPM_P1;HPM_P2
2023/01/15 00:02:07;;;;;;;19.60;11.57;;;;;;;4.78;79.71;100078.94;4893076;29;20027;-96
2023/01/15 00:04:36;;;;;;;20.88;10.82;;;;;;;4.70;80.27;100068.53;4891868;29;20526;-96
2023/01/15 00:07:10;;;;;;;18.63;11.10;;;;;;;4.87;80.31;100091.00;4892009;29;20078;-96
2023/01/15 00:09:39;;;;;;;25.75;13.05;;;;;;;4.75;79.91;100074.88;4869210;29;20060;-96
2023/01/15 00:12:35;;;;;;;28.23;12.93;;;;;;;4.76;79.35;100067.66;4869068;29;20064;-96
2023/01/15 00:15:13;;;;;;;20.67;12.50;;;;;;;4.98;79.13;100089.50;4884088;29;20054;-96
2023/01/15 00:17:39;;;;;;;24.60;14.10;;;;;;;4.93;79.16;100073.31;4854269;29;20041;-96
2023/01/15 00:20:13;;;;;;;25.73;14.77;;;;;;;5.10;78.66;100089.66;4868737;29;20127;-96
2023/01/15 00:22:44;;;;;;;26.98;14.02;;;;;;;4.93;78.27;100068.81;4869394;29;20055;-96
2023/01/15 00:27:58;;;;;;;21.35;13.13;;;;;;;5.09;78.29;100099.50;4887363;29;20116;-96
2023/01/15 00:30:24;;;;;;;24.25;12.63;;;;;;;5.07;79.24;100081.03;4879295;29;20032;-96
2023/01/15 00:32:50;;;;;;;22.52;12.15;;;;;;;5.13;78.07;100083.91;4886939;29;20075;-96
2023/01/15 00:35:17;;;;;;;25.52;13.70;;;;;;;5.07;77.75;100074.88;4918358;29;20097;-96
2023/01/15 00:37:43;;;;;;;23.52;11.73;;;;;;;5.00;79.10;100101.63;4888158;29;20044;-96
2023/01/15 00:40:13;;;;;;;19.90;10.98;;;;;;;4.89;79.86;100107.63;4930722;29;20035;-96
2023/01/15 00:42:39;;;;;;;21.05;10.75;;;;;;;4.64;80.31;100071.00;4926828;29;20031;-96
2023/01/15 00:45:09;;;;;;;18.83;11.98;;;;;;;4.81;80.44;100099.84;4926093;29;20019;-96
2023/01/15 00:47:42;;;;;;;17.13;10.75;;;;;;;4.63;80.17;100073.91;4925909;29;20031;-96
2023/01/15 00:50:11;;;;;;;19.67;10.02;;;;;;;4.63;80.19;100079.22;4925612;29;20050;-96
2023/01/15 00:52:42;;;;;;;16.45;9.63;;;;;;;4.86;80.40;100095.53;4926923;29;20047;-95
2023/01/15 00:55:33;;;;;;;17.20;10.38;;;;;;;4.72;80.26;100061.94;4924552;29;20031;-96
2023/01/15 00:57:59;;;;;;;20.92;10.48;;;;;;;4.76;80.34;100086.34;4924425;29;20066;-96
2023/01/15 01:00:32;;;;;;;20.20;10.43;;;;;;;4.67;80.39;100064.44;4909311;29;20027;-96
2023/01/15 01:02:58;;;;;;;18.50;10.60;;;;;;;4.50;80.31;100049.94;4926908;29;20039;-95
2023/01/15 01:05:29;;;;;;;23.73;11.15;;;;;;;4.60;80.64;100050.31;4925319;29;20117;-96
2023/01/15 01:08:00;;;;;;;27.40;11.63;;;;;;;4.75;80.47;100074.03;4926685;29;20023;-96
2023/01/15 01:10:26;;;;;;;20.65;11.40;;;;;;;4.88;80.56;100089.13;4909802;29;20027;-96
2023/01/15 01:13:01;;;;;;;20.10;12.40;;;;;;;4.82;80.14;100082.84;4925359;28;20027;-96
2023/01/15 01:15:30;;;;;;;18.58;11.05;;;;;;;4.74;80.16;100059.06;4926582;29;20031;-96
2023/01/15 01:18:04;;;;;;;23.08;13.68;;;;;;;4.94;79.66;100093.63;4925182;29;20478;-96
2023/01/15 01:20:33;;;;;;;20.80;11.25;;;;;;;4.80;80.59;100069.69;4929708;29;20039;-96
2023/01/15 01:23:02;;;;;;;17.35;10.27;;;;;;;4.62;80.52;100051.72;4913754;29;20482;-96
2023/01/15 01:25:33;;;;;;;14.20;9.15;;;;;;;4.63;80.51;100061.38;4928545;29;20027;-96
2023/01/15 01:28:06;;;;;;;14.57;8.52;;;;;;;4.71;80.58;100067.47;4929431;29;20538;-96
2023/01/15 01:30:36;;;;;;;14.52;8.80;;;;;;;4.58;80.59;100047.84;4930334;29;20035;-96
2023/01/15 01:33:09;;;;;;;15.15;8.57;;;;;;;4.56;81.07;100046.41;4929259;29;20073;-96
2023/01/15 01:35:38;;;;;;;11.95;7.90;;;;;;;4.55;80.93;100039.47;4914909;29;20027;-96
2023/01/15 01:38:08;;;;;;;16.83;8.23;;;;;;;4.48;80.73;100047.47;4930596;29;20038;-96
2023/01/15 01:40:37;;;;;;;15.13;7.72;;;;;;;4.48;80.74;100042.13;4929458;29;20050;-96
2023/01/15 01:43:05;;;;;;;11.23;6.47;;;;;;;4.45;80.96;100042.56;4928774;29;20024;-96
2023/01/15 01:45:36;;;;;;;11.35;6.90;;;;;;;4.40;80.85;100035.22;4928870;29;20498;-96
2023/01/15 01:48:11;;;;;;;10.88;6.80;;;;;;;4.51;80.79;100044.41;4912468;29;20121;-96
2023/01/15 01:51:04;;;;;;;9.20;6.50;;;;;;;4.36;80.67;100030.53;4913163;29;20019;-96
2023/01/15 01:53:33;;;;;;;11.93;6.97;;;;;;;4.42;80.94;100033.16;4934609;29;20478;-96
2023/01/15 01:56:00;;;;;;;12.60;7.20;;;;;;;4.43;80.46;100031.31;4914362;29;20027;-95
2023/01/15 01:58:33;;;;;;;13.23;6.43;;;;;;;4.71;80.06;100046.97;4928356;29;20217;-96
2023/01/15 02:00:59;;;;;;;11.02;7.28;;;;;;;4.66;79.96;100031.59;4913639;29;20023;-96
2023/01/15 02:03:39;;;;;;;11.27;6.50;;;;;;;4.58;80.24;100013.16;4913031;29;20106;-96
2023/01/15 02:06:21;;;;;;;10.48;6.53;;;;;;;4.69;79.88;100032.19;4945537;29;20054;-96
2023/01/15 02:08:55;;;;;;;33.65;14.88;;;;;;;4.95;79.66;100052.59;4931460;29;20079;-96
2023/01/15 02:11:23;;;;;;;15.98;9.25;;;;;;;4.85;78.71;100031.69;4929232;29;20188;-96
2023/01/15 02:14:14;;;;;;;14.95;8.63;;;;;;;4.86;77.22;100017.34;4927324;29;20047;-96
2023/01/15 02:17:09;;;;;;;13.10;7.35;;;;;;;4.88;77.29;100033.09;4927953;29;20062;-96
2023/01/15 02:19:56;;;;;;;10.27;6.68;;;;;;;5.09;77.39;100053.31;4929932;29;20023;-96
2023/01/15 02:22:43;;;;;;;13.38;7.43;;;;;;;5.10;77.42;100050.41;4942006;29;20023;-94
2023/01/15 02:25:33;;;;;;;11.18;7.03;;;;;;;4.90;77.55;100018.53;4926609;29;20027;-92
2023/01/15 02:28:07;;;;;;;15.82;7.93;;;;;;;4.98;77.77;100023.63;4913465;29;20031;-94
2023/01/15 02:30:45;;;;;;;12.65;7.60;;;;;;;5.04;77.36;100019.25;4910683;29;20434;-95
2023/01/15 02:33:22;;;;;;;12.32;8.18;;;;;;;4.95;77.24;100015.22;4912735;29;20397;-93
2023/01/15 02:35:59;;;;;;;14.85;8.68;;;;;;;4.99;77.17;100027.91;4911880;29;20474;-94
2023/01/15 02:38:27;;;;;;;16.40;10.38;;;;;;;5.00;77.21;100021.56;4927100;29;20469;-94
2023/01/15 02:40:54;;;;;;;14.43;8.52;;;;;;;5.03;76.29;100014.97;4925991;29;20046;-93
2023/01/15 02:43:19;;;;;;;12.15;7.72;;;;;;;5.09;76.53;100014.09;4926119;29;20386;-94
2023/01/15 02:45:49;;;;;;;11.10;6.82;;;;;;;5.00;77.10;100016.22;4926008;29;20126;-94
2023/01/15 02:48:18;;;;;;;12.85;7.50;;;;;;;4.90;76.45;99983.84;4910874;29;20529;-94
2023/01/15 02:50:48;;;;;;;10.93;7.70;;;;;;;4.90;77.22;99989.19;4910728;29;20433;-94
2023/01/15 02:53:22;;;;;;;9.82;6.97;;;;;;;5.20;76.35;100031.25;4926389;29;20031;-94
2023/01/15 02:55:50;;;;;;;11.57;6.32;;;;;;;4.89;76.14;100000.06;4915355;28;20022;-94
2023/01/15 02:58:19;;;;;;;10.20;6.25;;;;;;;5.14;76.29;100035.59;4930147;28;20015;-95
2023/01/15 03:00:48;;;;;;;12.55;7.32;;;;;;;5.04;76.48;100006.75;4930056;28;20030;-95
2023/01/15 03:03:30;;;;;;;9.98;6.30;;;;;;;5.11;76.74;100008.56;4929553;28;20125;-94
2023/01/15 03:06:13;;;;;;;11.48;6.88;;;;;;;5.07;77.41;100016.97;4946394;28;20026;-94
2023/01/15 03:08:41;;;;;;;9.45;5.65;;;;;;;4.94;77.42;100000.22;4929210;28;20409;-95
2023/01/15 03:11:11;;;;;;;12.18;6.70;;;;;;;4.91;78.12;100006.81;4927211;28;20097;-94
2023/01/15 03:13:52;;;;;;;13.30;7.07;;;;;;;5.01;77.78;100019.69;4930471;28;20129;-94
2023/01/15 03:16:38;;;;;;;11.20;6.45;;;;;;;4.77;78.11;99999.94;4961089;28;20030;-94
2023/01/15 03:19:28;;;;;;;11.77;6.85;;;;;;;4.84;78.54;100017.53;4933095;28;20081;-94
2023/01/15 03:21:53;;;;;;;13.68;7.45;;;;;;;4.82;78.57;100016.94;4956302;28;20477;-93
2023/01/15 03:24:59;;;;;;;10.98;6.70;;;;;;;4.73;78.48;100004.06;4980006;28;20026;-94
2023/01/15 03:27:24;;;;;;;9.70;6.30;;;;;;;4.78;78.97;100012.25;4964459;28;20485;-94
2023/01/15 03:30:01;;;;;;;11.32;6.75;;;;;;;4.71;78.57;100000.78;4963843;28;20022;-94
2023/01/15 03:32:27;;;;;;;10.50;7.25;;;;;;;4.59;79.94;99998.81;4963856;28;20029;-94
2023/01/15 03:34:54;;;;;;;11.07;6.82;;;;;;;4.74;79.22;100017.19;4978339;28;20049;-94
2023/01/15 03:37:23;;;;;;;10.27;6.53;;;;;;;4.64;78.54;99995.50;4980143;28;20075;-95
2023/01/15 03:39:49;;;;;;;12.13;6.70;;;;;;;4.91;78.33;100019.34;4964105;28;20026;-94
2023/01/15 03:42:43;;;;;;;10.98;6.72;;;;;;;5.00;78.47;100010.03;4979345;28;20554;-94
2023/01/15 03:45:28;;;;;;;11.40;6.25;;;;;;;4.76;78.85;99992.97;4964300;28;20053;-95
2023/01/15 03:48:09;;;;;;;10.95;6.95;;;;;;;4.98;78.93;100018.28;4980567;28;20026;-94
2023/01/15 03:50:52;;;;;;;10.98;6.90;;;;;;;4.67;79.15;99976.41;4996281;28;20023;-94
2023/01/15 03:53:24;;;;;;;10.98;7.30;;;;;;;4.73;79.42;99996.06;4963140;28;20087;-93
2023/01/15 03:56:06;;;;;;;11.55;7.30;;;;;;;4.90;78.40;100001.69;4964109;28;20026;-94
2023/01/15 03:58:42;;;;;;;12.77;7.22;;;;;;;5.04;78.23;100013.91;4996121;28;20064;-94
2023/01/15 04:01:13;;;;;;;12.65;6.80;;;;;;;4.93;78.74;99986.06;4964278;28;20121;-94
2023/01/15 04:03:44;;;;;;;10.13;6.00;;;;;;;4.86;78.29;99999.47;4964152;28;20030;-94
2023/01/15 04:06:09;;;;;;;11.95;7.68;;;;;;;4.85;77.88;99995.16;4976594;28;20031;-94
2023/01/15 04:08:37;;;;;;;11.90;6.85;;;;;;;4.92;78.42;100010.31;4927610;28;20121;-92
2023/01/15 04:11:03;;;;;;;12.05;7.30;;;;;;;4.80;79.31;100016.34;4928450;28;20089;-94
2023/01/15 04:13:29;;;;;;;12.95;8.27;;;;;;;4.65;79.03;99999.81;4928856;28;20043;-94
2023/01/15 04:15:54;;;;;;;16.85;8.27;;;;;;;4.68;79.06;100026.06;4930689;28;20026;-94
2023/01/15 04:18:20;;;;;;;12.35;7.75;;;;;;;4.59;79.67;100001.47;4926604;28;20113;-94
2023/01/15 04:20:46;;;;;;;12.25;7.55;;;;;;;4.78;78.71;100012.25;4928019;28;20022;-95
2023/01/15 04:23:12;;;;;;;16.98;7.63;;;;;;;4.80;78.67;99999.53;4927160;28;20030;-94
2023/01/15 04:25:40;;;;;;;13.95;7.50;;;;;;;4.77;79.05;100014.13;4927094;28;20018;-94
2023/01/15 04:28:07;;;;;;;13.85;6.90;;;;;;;4.59;79.23;99995.34;4926199;28;20042;-94
2023/01/15 04:30:33;;;;;;;15.05;8.23;;;;;;;4.75;79.06;100007.34;4944184;28;20050;-94
2023/01/15 04:32:58;;;;;;;13.88;8.20;;;;;;;4.78;78.52;99996.25;4927879;28;20027;-93
2023/01/15 04:35:24;;;;;;;15.20;7.57;;;;;;;4.86;77.98;100001.31;4927769;28;20037;-93
2023/01/15 04:37:56;;;;;;;11.00;7.00;;;;;;;4.90;77.76;100009.69;4927268;28;20041;-94
2023/01/15 04:45:57;;;;;;;13.23;7.70;;;;;;;4.98;77.17;100015.63;4949107;28;20112;-93
2023/01/15 04:48:23;;;;;;;12.65;6.68;;;;;;;4.91;76.80;100001.50;4927161;28;20027;-94
2023/01/15 04:50:51;;;;;;;13.60;8.00;;;;;;;5.07;77.24;100027.66;4927704;28;20034;-93
2023/01/15 04:53:17;;;;;;;12.45;7.80;;;;;;;4.98;77.45;100009.44;4927596;28;20026;-94
2023/01/15 04:55:42;;;;;;;14.23;7.45;;;;;;;5.15;77.68;100039.94;4927229;28;20054;-93
2023/01/15 04:58:08;;;;;;;11.45;7.45;;;;;;;5.12;77.30;100037.69;4927843;28;20502;-94
2023/01/15 05:00:37;;;;;;;12.32;7.22;;;;;;;5.13;76.93;100027.84;4927313;28;20022;-93
2023/01/15 05:03:05;;;;;;;12.18;7.13;;;;;;;5.17;76.21;100029.03;4928277;28;20485;-94
2023/01/15 05:05:33;;;;;;;12.27;6.90;;;;;;;5.17;76.55;100056.56;4927355;28;20027;-94
2023/01/15 05:07:59;;;;;;;10.40;5.82;;;;;;;5.07;76.63;100037.53;4942921;28;20157;-93
2023/01/15 05:10:25;;;;;;;9.32;5.97;;;;;;;5.09;76.23;100021.28;4927464;28;20121;-93
2023/01/15 05:12:51;;;;;;;9.65;5.63;;;;;;;5.18;75.67;100033.34;4941742;28;20048;-93
2023/01/15 05:15:19;;;;;;;9.30;5.93;;;;;;;5.18;76.11;100036.00;4943310;28;20035;-94
2023/01/15 05:17:45;;;;;;;11.25;5.97;;;;;;;5.13;75.03;100014.50;4943107;28;20082;-93
2023/01/15 05:20:14;;;;;;;10.32;6.20;;;;;;;5.29;75.56;100053.16;4927078;28;20027;-94
2023/01/15 05:22:40;;;;;;;11.55;6.38;;;;;;;5.19;76.18;100032.31;4946177;28;20026;-93
2023/01/15 05:25:09;;;;;;;11.40;5.95;;;;;;;5.15;75.61;100026.59;4961585;28;20029;-93
2023/01/15 05:27:35;;;;;;;12.77;6.80;;;;;;;5.08;75.55;100012.44;4942753;28;20026;-93
2023/01/15 05:30:01;;;;;;;9.85;6.22;;;;;;;5.19;74.60;100026.97;4942985;28;20420;-94
2023/01/15 05:32:27;;;;;;;9.55;5.97;;;;;;;5.23;75.05;100026.31;4937576;28;20122;-93
2023/01/15 05:35:02;;;;;;;10.25;6.25;;;;;;;5.19;75.37;100029.66;4925917;28;20073;-94
2023/01/15 05:37:29;;;;;;;11.23;7.15;;;;;;;5.21;76.02;100017.72;4927930;28;20035;-93
2023/01/15 05:39:57;;;;;;;12.60;7.55;;;;;;;5.26;75.65;100025.06;4927634;28;20027;-94
2023/01/15 05:42:43;;;;;;;13.07;7.60;;;;;;;5.19;76.12;100018.97;4928709;28;20031;-94
2023/01/15 05:45:12;;;;;;;12.77;6.13;;;;;;;5.29;76.74;100045.16;4945164;28;20035;-94
2023/01/15 05:47:40;;;;;;;15.23;7.03;;;;;;;5.08;76.93;100007.09;4927043;28;20082;-94
2023/01/15 05:50:06;;;;;;;10.00;6.40;;;;;;;5.17;77.13;100045.88;4925898;28;20041;-94
2023/01/15 05:52:34;;;;;;;12.10;6.93;;;;;;;5.05;77.88;100019.03;4926889;28;20019;-94
2023/01/15 05:55:02;;;;;;;11.80;6.30;;;;;;;5.02;77.51;100034.66;4927822;28;20030;-94
2023/01/15 05:57:31;;;;;;;12.77;7.10;;;;;;;4.87;79.03;100010.94;4946972;28;20025;-94
2023/01/15 06:00:02;;;;;;;12.70;7.00;;;;;;;4.95;77.82;100028.56;4942760;28;20063;-94
2023/01/15 06:02:28;;;;;;;14.52;7.50;;;;;;;4.99;78.64;100032.44;4943580;28;20082;-95
2023/01/15 06:04:58;;;;;;;13.40;7.32;;;;;;;4.78;78.49;100004.25;4946859;28;20011;-94
2023/01/15 06:07:48;;;;;;;12.90;8.02;;;;;;;4.83;78.99;100002.56;4981805;28;20070;-93
2023/01/15 06:10:23;;;;;;;14.27;8.30;;;;;;;4.77;78.71;99994.59;4980744;28;20061;-95
2023/01/15 06:12:56;;;;;;;14.75;8.02;;;;;;;4.95;78.74;100036.56;4965466;28;20022;-94
2023/01/15 06:15:22;;;;;;;13.90;8.05;;;;;;;4.68;79.40;99999.38;4965153;28;20045;-95
2023/01/15 06:17:50;;;;;;;16.95;9.95;;;;;;;4.72;79.54;100021.91;4967041;28;20023;-96
2023/01/15 06:20:16;;;;;;;12.20;8.20;;;;;;;4.55;79.60;100013.59;4952051;28;20050;-96
2023/01/15 06:22:44;;;;;;;14.27;9.70;;;;;;;4.71;78.87;100012.31;4949537;28;20062;-96
2023/01/15 06:25:15;;;;;;;16.25;9.25;;;;;;;4.89;79.46;100032.09;4950544;28;20030;-96
2023/01/15 06:27:50;;;;;;;15.20;9.30;;;;;;;4.75;78.71;100010.84;4950071;28;20082;-96
2023/01/15 06:30:18;;;;;;;19.33;10.18;;;;;;;4.70;79.77;100010.66;4952718;28;20029;-96
2023/01/15 06:32:47;;;;;;;15.05;9.13;;;;;;;4.74;79.08;100003.84;4967941;28;20034;-96
2023/01/15 06:35:16;;;;;;;18.17;9.48;;;;;;;4.79;79.25;99995.19;4950505;28;20060;-96
2023/01/15 06:37:51;;;;;;;17.27;10.48;;;;;;;4.80;78.63;99995.00;4951409;28;20042;-96
2023/01/15 06:40:22;;;;;;;21.83;11.10;;;;;;;5.00;77.98;100026.91;4966066;28;20022;-96
2023/01/15 06:48:36;;;;;;;16.45;9.55;;;;;;;4.98;77.92;100022.78;4971597;28;20089;-96
2023/01/15 06:51:02;;;;;;;18.17;9.85;;;;;;;5.03;77.90;100021.13;4950567;28;20023;-96
2023/01/15 06:53:31;;;;;;;20.30;10.35;;;;;;;5.04;77.49;100011.25;4965866;28;20022;-96
2023/01/15 06:56:00;;;;;;;15.13;9.88;;;;;;;5.11;77.12;100005.88;4965203;28;20497;-96
2023/01/15 06:58:28;;;;;;;18.67;11.30;;;;;;;5.03;76.25;99981.06;4950075;28;20060;-96
2023/01/15 07:00:59;;;;;;;21.33;11.35;;;;;;;5.01;76.98;99995.69;4951514;28;20046;-96
2023/01/15 07:03:31;;;;;;;17.80;11.77;;;;;;;5.35;76.71;100036.28;4965988;28;20473;-96
2023/01/15 07:05:59;;;;;;;17.45;10.02;;;;;;;5.28;75.98;99996.28;4982328;28;20552;-96
2023/01/15 07:08:34;;;;;;;16.63;9.65;;;;;;;5.26;75.89;99990.34;4966612;28;20031;-96
2023/01/15 07:11:09;;;;;;;15.18;9.25;;;;;;;5.49;74.77;100007.63;4951886;28;20037;-94
2023/01/15 07:13:37;;;;;;;17.58;10.50;;;;;;;5.50;75.96;100018.09;4943951;28;20081;-95
2023/01/15 07:16:13;;;;;;;;;;;;;;;;;;;;;
2023/01/15 07:18:40;;;;;;;17.27;10.02;;;;;;;5.55;75.65;100006.75;4950004;28;20019;-96
2023/01/15 07:21:05;;;;;;;14.43;9.10;;;;;;;5.70;74.81;100006.41;4930309;28;20057;-95
2023/01/15 07:23:34;;;;;;;18.23;9.23;;;;;;;5.64;75.65;100010.75;4928358;28;20122;-96
2023/01/15 07:26:00;;;;;;;16.25;9.15;;;;;;;5.63;75.29;100004.59;4931597;28;20042;-96
2023/01/15 07:28:33;;;;;;;13.30;7.70;;;;;;;5.56;74.79;99989.66;4931532;28;20030;-96
2023/01/15 07:31:07;;;;;;;10.63;6.70;;;;;;;5.77;73.77;99999.97;4931445;28;20030;-96
2023/01/15 07:33:38;;;;;;;15.02;8.70;;;;;;;6.07;73.83;100021.44;4930797;28;20022;-96
2023/01/15 07:36:13;;;;;;;14.55;7.88;;;;;;;6.10;73.31;100016.69;4948082;28;20035;-96
2023/01/15 07:38:42;;;;;;;8.95;6.20;;;;;;;6.00;71.80;100001.19;4933321;28;20022;-96
2023/01/15 07:50:32;;;;;;;8.82;5.88;;;;;;;6.22;71.12;100012.22;4953818;28;20041;-96
2023/01/15 07:52:59;;;;;;;;;;;;;;;6.26;72.30;100027.59;4949061;28;20034;-96
2023/01/15 07:55:41;;;;;;;;;;;;;;;;;;;;;
2023/01/15 07:58:32;;;;;;;8.52;5.28;;;;;;;6.14;72.52;100029.38;4949088;28;20025;-96
2023/01/15 08:01:10;;;;;;;8.07;5.45;;;;;;;6.03;71.52;99995.38;4945727;28;20038;-96
2023/01/15 08:03:36;;;;;;;9.23;6.30;;;;;;;6.21;71.27;100013.28;4932276;28;20031;-96
2023/01/15 08:06:02;;;;;;;16.38;10.57;;;;;;;6.28;71.67;100011.34;4930156;28;20515;-96
2023/01/15 08:08:30;;;;;;;10.07;6.13;;;;;;;6.19;71.46;99992.09;4931350;28;20098;-96
2023/01/15 08:16:44;;;;;;;8.35;5.25;;;;;;;6.56;70.55;99992.06;4953141;28;20404;-96
2023/01/15 08:19:12;;;;;;;8.75;6.18;;;;;;;6.78;69.88;100016.44;4929855;28;20034;-96
2023/01/15 08:21:41;;;;;;;8.50;5.60;;;;;;;6.72;70.25;100005.84;4930386;28;20058;-96
2023/01/15 08:24:07;;;;;;;10.20;5.60;;;;;;;6.76;69.29;100009.69;4929717;28;20050;-96
2023/01/15 08:26:35;;;;;;;10.60;6.40;;;;;;;6.48;70.55;100000.41;4944653;28;20030;-96
2023/01/15 08:29:07;;;;;;;11.43;6.20;;;;;;;6.33;70.65;99989.25;4930644;28;20038;-96
2023/01/15 08:31:40;;;;;;;9.65;5.35;;;;;;;6.24;70.28;99992.25;4944850;28;20469;-96
2023/01/15 08:34:28;;;;;;;8.73;5.85;;;;;;;6.24;70.07;99999.44;4907761;29;20058;-96
2023/01/15 08:36:58;;;;;;;10.20;5.82;;;;;;;6.12;70.68;99970.00;4906711;29;20031;-96
2023/01/15 08:39:38;;;;;;;11.63;7.50;;;;;;;6.38;71.64;100008.13;4890397;29;20513;-96
2023/01/15 08:42:07;;;;;;;9.27;6.20;;;;;;;6.29;71.72;99991.59;4907655;29;20035;-96
2023/01/15 08:44:41;;;;;;;10.93;6.88;;;;;;;6.29;71.59;99975.53;4906092;29;20035;-95
2023/01/15 08:47:15;;;;;;;8.98;6.10;;;;;;;6.33;71.51;99983.91;4891246;29;20032;-96
2023/01/15 08:49:55;;;;;;;;;;;;;;;;;;;;;
2023/01/15 08:52:32;;;;;;;10.52;6.35;;;;;;;6.21;72.78;99978.53;4890658;29;20522;-96
2023/01/15 08:54:59;;;;;;;11.18;6.53;;;;;;;6.30;72.62;99981.69;4885886;29;20123;-95
2023/01/15 08:57:29;;;;;;;10.85;7.03;;;;;;;6.38;71.52;99979.53;4872260;29;20040;-96
2023/01/15 09:00:03;;;;;;;11.52;6.53;;;;;;;6.29;71.78;99970.19;4887041;29;20064;-96
2023/01/15 09:02:44;;;;;;;9.90;6.20;;;;;;;6.56;71.04;99999.28;4886596;29;20036;-95
2023/01/15 09:05:11;;;;;;;14.55;9.80;;;;;;;6.40;72.02;99965.94;4924316;29;20071;-96
2023/01/15 09:07:36;;;;;;;13.55;9.52;;;;;;;6.60;71.62;99987.88;4940815;29;20454;-95
2023/01/15 09:10:10;;;;;;;12.05;7.32;;;;;;;6.62;71.85;99961.72;4909131;29;20027;-96
2023/01/15 09:12:46;;;;;;;15.13;7.00;;;;;;;6.99;69.46;99985.69;4925149;29;20040;-96
2023/01/15 09:15:18;;;;;;;9.02;5.90;;;;;;;6.92;68.67;99962.72;4960193;28;20070;-95
2023/01/15 09:17:53;;;;;;;11.45;5.70;;;;;;;6.93;68.46;99967.84;4960080;28;20402;-96
2023/01/15 09:20:21;;;;;;;10.23;6.43;;;;;;;6.88;68.57;99954.34;4975487;28;20035;-95
2023/01/15 09:22:52;;;;;;;9.10;5.88;;;;;;;6.82;68.73;99958.72;4945585;28;20026;-96
2023/01/15 09:25:18;;;;;;;7.50;4.88;;;;;;;6.97;68.60;99977.06;4960196;28;20453;-96
2023/01/15 09:27:49;;;;;;;8.43;4.75;;;;;;;6.87;67.28;99952.72;4959480;28;20413;-96
2023/01/15 09:30:25;;;;;;;9.32;5.07;;;;;;;6.83;68.30;99952.34;4959759;28;20118;-96
2023/01/15 09:32:58;;;;;;;10.27;4.93;;;;;;;6.78;67.95;99938.00;4960575;28;20136;-95
2023/01/15 09:35:27;;;;;;;8.15;5.05;;;;;;;6.89;68.39;99955.97;4958370;28;20557;-96
2023/01/15 09:37:53;;;;;;;11.73;6.82;;;;;;;6.96;67.96;99942.47;4959894;28;20034;-96
2023/01/15 09:40:36;;;;;;;10.90;7.00;;;;;;;6.95;67.07;99939.00;4959966;28;20109;-96
2023/01/15 09:43:05;;;;;;;10.57;5.72;;;;;;;7.18;67.22;99937.38;4962825;28;20031;-96
2023/01/15 09:45:39;;;;;;;9.57;5.90;;;;;;;7.40;67.33;99956.38;4946612;29;20414;-96
2023/01/15 09:49:02;;;;;;;10.07;5.82;;;;;;;7.21;67.18;99931.56;4939130;28;20537;-96
2023/01/15 09:51:41;;;;;;;12.50;6.47;;;;;;;7.62;67.50;99960.09;4959421;28;20031;-96
2023/01/15 09:54:27;;;;;;;11.20;6.55;;;;;;;7.87;66.87;99957.13;4944311;28;20085;-95
2023/01/15 09:56:53;;;;;;;8.40;5.55;;;;;;;7.85;67.76;99920.91;4979151;28;20027;-96
2023/01/15 09:59:30;;;;;;;9.75;4.20;;;;;;;8.03;67.15;99947.56;4946944;28;20397;-95
2023/01/15 10:01:55;;;;;;;9.75;5.35;;;;;;;8.10;66.33;99926.75;4962497;28;20030;-94
2023/01/15 10:04:35;;;;;;;8.57;5.72;;;;;;;8.33;66.86;99927.72;4948018;28;20025;-96
2023/01/15 10:07:24;;;;;;;8.20;5.35;;;;;;;8.38;65.76;99935.06;4964279;28;20026;-95
2023/01/15 10:09:58;;;;;;;10.60;5.30;;;;;;;8.45;65.83;99919.69;4963595;28;20091;-95
2023/01/15 10:12:35;;;;;;;7.63;4.40;;;;;;;8.39;65.35;99897.25;4947597;28;20077;-96
2023/01/15 10:15:13;;;;;;;8.15;5.35;;;;;;;8.60;65.27;99919.94;4933196;29;20079;-96
2023/01/15 10:17:42;;;;;;;13.43;6.05;;;;;;;8.59;65.89;99888.78;4944706;29;20590;-96
2023/01/15 10:20:29;;;;;;;8.88;5.38;;;;;;;8.94;65.08;99911.09;4927619;29;20035;-96
2023/01/15 10:23:02;;;;;;;10.68;6.07;;;;;;;8.94;65.18;99911.09;4942905;29;20031;-96
2023/01/15 10:25:33;;;;;;;15.25;6.40;;;;;;;8.81;64.86;99870.06;4960149;29;20023;-96
2023/01/15 10:28:02;;;;;;;14.75;7.45;;;;;;;8.99;64.58;99879.75;4943662;29;20050;-96
2023/01/15 10:30:38;;;;;;;9.85;6.57;;;;;;;8.95;65.08;99865.19;4942307;29;20023;-96
2023/01/15 10:33:18;;;;;;;11.52;6.32;;;;;;;8.95;64.05;99853.66;4926961;29;20445;-96
2023/01/15 10:35:50;;;;;;;10.73;6.78;;;;;;;9.23;63.72;99879.56;4943158;29;20106;-94
2023/01/15 10:38:22;;;;;;;11.23;6.15;;;;;;;9.13;64.13;99865.97;4942626;29;20027;-96
2023/01/15 10:41:00;;;;;;;11.35;6.20;;;;;;;9.04;64.58;99849.47;4947201;28;20030;-95
2023/01/15 10:43:52;;;;;;;11.15;6.43;;;;;;;9.07;64.15;99830.19;4931362;28;20576;-96
2023/01/15 10:46:41;;;;;;;8.60;5.47;;;;;;;9.32;63.12;99856.59;4944306;28;20039;-95
2023/01/15 10:49:14;;;;;;;12.27;6.88;;;;;;;9.23;63.43;99855.38;4946499;28;20101;-95
2023/01/15 10:51:48;;;;;;;9.18;5.70;;;;;;;9.06;63.55;99840.09;4930443;28;20035;-96
2023/01/15 10:54:28;;;;;;;8.98;5.85;;;;;;;9.09;63.60;99841.50;4948462;28;20030;-96
2023/01/15 10:57:04;;;;;;;10.93;6.20;;;;;;;8.97;63.30;99811.25;4946617;28;20074;-96
2023/01/15 10:59:43;;;;;;;8.90;5.57;;;;;;;8.80;63.00;99801.34;4931936;28;20147;-96
2023/01/15 11:02:43;;;;;;;13.15;6.05;;;;;;;9.06;63.00;99826.66;4931669;28;20082;-96
2023/01/15 11:05:27;;;;;;;7.68;5.53;;;;;;;8.90;61.71;99793.44;4949577;28;20019;-95
2023/01/15 11:07:53;;;;;;;10.65;5.10;;;;;;;8.89;61.43;99786.41;4908503;29;20027;-96
2023/01/15 11:10:20;;;;;;;8.23;5.20;;;;;;;8.68;61.50;99782.63;4909256;29;20035;-96
2023/01/15 11:21:29;;;;;;;4.35;3.10;;;;;;;8.27;60.28;99763.16;4914029;29;20038;-96
2023/01/15 11:23:55;;;;;;;8.55;4.80;;;;;;;8.49;60.10;99771.34;4924232;29;20038;-96
2023/01/15 11:26:27;;;;;;;10.10;4.90;;;;;;;8.56;59.96;99773.84;4916271;29;20083;-96
2023/01/15 11:28:53;;;;;;;6.63;3.78;;;;;;;8.58;58.43;99770.94;4911095;29;20126;-95
2023/01/15 11:31:23;;;;;;;7.18;3.83;;;;;;;8.38;58.79;99757.97;4927664;29;20031;-96
2023/01/15 11:34:06;;;;;;;5.35;3.42;;;;;;;8.40;58.85;99761.22;4912139;29;20027;-96
2023/01/15 11:36:37;;;;;;;5.88;3.55;;;;;;;8.49;58.76;99774.03;4921495;28;20086;-95
2023/01/15 11:39:05;;;;;;;5.35;3.28;;;;;;;8.44;58.81;99759.72;4945761;28;20048;-95
2023/01/15 11:52:48;;;;;;;8.07;4.63;;;;;;;8.41;60.77;99741.44;4964170;28;20038;-95
2023/01/15 11:55:18;;;;;;;8.98;4.60;;;;;;;8.34;61.13;99738.06;4945146;28;20094;-95
2023/01/15 11:57:44;;;;;;;8.98;4.25;;;;;;;8.40;61.11;99742.44;4945143;28;20031;-96
2023/01/15 12:00:20;;;;;;;4.60;3.20;;;;;;;8.48;59.64;99750.09;4945038;28;20058;-95
2023/01/15 12:02:49;;;;;;;9.65;3.92;;;;;;;8.25;60.12;99721.56;4945435;28;20421;-96
2023/01/15 12:05:17;;;;;;;7.97;4.20;;;;;;;8.21;60.66;99721.22;4945266;28;20050;-95
2023/01/15 12:07:43;;;;;;;7.88;4.63;;;;;;;8.18;61.97;99720.91;4944300;28;20042;-96
2023/01/15 12:13:28;;;;;;;5.70;3.60;;;;;;;8.30;62.58;99732.38;4963071;28;20037;-95
2023/01/15 12:16:31;;;;;;;7.80;4.38;;;;;;;8.24;63.09;99730.69;4979743;28;20038;-96
2023/01/15 12:19:16;;;;;;;8.23;4.78;;;;;;;8.02;63.55;99688.47;4978783;28;20049;-96
2023/01/15 12:22:11;;;;;;;7.35;4.25;;;;;;;8.16;63.94;99694.34;4950082;28;20053;-96
2023/01/15 12:25:01;;;;;;;6.88;4.60;;;;;;;8.14;63.75;99690.28;4981871;28;20026;-96
2023/01/15 12:27:51;;;;;;;8.07;3.88;;;;;;;8.24;64.02;99709.22;4965558;28;20037;-96
2023/01/15 12:30:43;;;;;;;5.65;3.63;;;;;;;7.93;64.23;99678.38;4963671;28;20034;-96
2023/01/15 12:33:17;;;;;;;6.30;3.83;;;;;;;7.93;64.52;99681.91;4911019;29;20035;-96
2023/01/15 12:35:57;;;;;;;8.77;4.30;;;;;;;8.00;64.84;99674.50;4909450;29;20022;-96
2023/01/15 12:38:46;;;;;;;8.70;4.10;;;;;;;8.00;65.24;99668.31;4926870;29;20023;-96
2023/01/15 12:47:30;;;;;;;6.55;3.80;;;;;;;8.22;64.62;99679.94;4932142;29;20111;-96
2023/01/15 12:50:03;;;;;;;6.00;4.00;;;;;;;8.26;64.83;99672.22;4925997;29;20029;-96
2023/01/15 12:52:33;;;;;;;9.02;3.92;;;;;;;8.40;64.82;99689.56;4926282;29;20031;-95
2023/01/15 12:55:23;;;;;;;7.13;3.83;;;;;;;8.46;64.25;99682.44;4925546;29;20397;-95
2023/01/15 12:58:10;;;;;;;10.40;4.95;;;;;;;8.52;64.41;99661.88;4908969;29;20058;-96
2023/01/15 13:00:43;;;;;;;25.90;9.85;;;;;;;8.75;64.69;99679.63;4926177;29;20042;-95